Time;durP1;ratioP1;P1;durP2;ratioP2;P2;SDS_P1;SDS_P2;PMS_P1;PMS_P2;Temp;Humidity;BMP_temperature;BMP_pressure;BME280_temperature;BME280_humidity;BME280_pressure;Samples;Min_cycle;Max_cycle;Signal;HPM_P1;HPM_P2
2023/09/28 00:03:14;;;;;;;0.20;0.20;;;;;;;17.72;60.16;100212.66;5329749;26;20385;-95
2023/09/28 00:09:25;;;;;;;0.15;0.15;;;;;;;17.66;60.15;100212.12;5317503;26;20060;-95
2023/09/28 00:12:13;;;;;;;0.40;0.40;;;;;;;17.77;60.16;100212.44;5293185;26;20052;-94
2023/09/28 00:15:13;;;;;;;1.05;0.60;;;;;;;17.78;60.16;100211.50;5291611;26;20119;-95
2023/09/28 00:18:08;;;;;;;0.17;0.17;;;;;;;17.71;60.16;100210.13;5308425;26;20095;-94
2023/09/28 00:20:39;;;;;;;0.03;0.03;;;;;;;17.79;60.16;100200.88;5312224;26;20357;-94
2023/09/28 00:23:36;;;;;;;;;;;;;;;;;;;;;
2023/09/28 00:26:07;;;;;;;1.37;1.17;;;;;;;17.92;60.17;100206.31;5327355;26;36314;-93
2023/09/28 00:28:48;;;;;;;;;;;;;;;;;;;;;
2023/09/28 00:31:16;;;;;;;0.10;0.10;;;;;;;17.86;60.17;100203.19;5310573;26;36144;-94
2023/09/28 00:38:00;;;;;;;;;;;;;;;;;;;;;
2023/09/28 00:41:05;;;;;;;0.03;0.03;;;;;;;17.32;60.14;100211.28;5345124;26;35789;-95
2023/09/28 00:43:44;;;;;;;2.00;0.68;;;;;;;17.39;60.15;100215.28;5325557;26;20124;-94
2023/09/28 00:46:27;;;;;;;0.30;0.30;;;;;;;17.18;60.12;100214.63;5290625;26;20031;-95
2023/09/28 00:49:05;;;;;;;0.95;0.85;;;;;;;17.30;60.13;100202.63;5308774;26;20061;-94
2023/09/28 00:51:33;;;;;;;3.20;1.85;;;;;;;17.33;60.14;100205.09;5289637;26;20073;-94
2023/09/28 00:54:01;;;;;;;0.40;0.40;;;;;;;17.04;60.12;100204.00;5289577;26;20131;-93
2023/09/28 00:56:28;;;;;;;1.30;1.00;;;;;;;17.11;60.12;100202.72;5308208;26;20113;-95
2023/09/28 00:58:56;;;;;;;0.08;0.08;;;;;;;17.05;60.11;100203.06;5290578;26;20091;-96
2023/09/28 01:01:24;;;;;;;0.55;0.35;;;;;;;17.04;60.12;100209.25;5295681;26;20110;-96
2023/09/28 01:03:52;;;;;;;0.30;0.15;;;;;;;17.19;60.13;100207.59;5291000;26;20626;-96
2023/09/28 01:06:17;;;;;;;0.20;0.20;;;;;;;17.04;60.12;100205.75;5291247;26;20057;-96
2023/09/28 01:08:48;;;;;;;1.08;0.73;;;;;;;17.04;60.12;100208.41;5290859;26;20071;-96
2023/09/28 01:11:28;;;;;;;0.32;0.32;;;;;;;16.98;60.11;100211.31;5290253;26;20079;-96
2023/09/28 01:14:07;;;;;;;2.47;0.68;;;;;;;16.96;60.11;100214.03;5292970;26;20065;-96
2023/09/28 01:16:33;;;;;;;0.00;0.00;;;;;;;17.05;60.12;100212.72;5293817;26;20066;-96
2023/09/28 01:19:01;;;;;;;0.45;0.45;;;;;;;17.01;60.12;100206.75;5291474;26;20071;-96
2023/09/28 01:21:32;;;;;;;0.20;0.20;;;;;;;16.94;60.12;100210.63;5292367;26;20064;-96
2023/09/28 01:24:00;;;;;;;0.77;0.75;;;;;;;17.29;60.13;100206.19;5306635;26;20729;-93
2023/09/28 01:26:31;;;;;;;0.22;0.22;;;;;;;17.07;60.12;100197.72;5290289;26;20067;-95
2023/09/28 01:29:02;;;;;;;1.30;1.15;;;;;;;17.10;60.13;100203.66;5289973;26;20434;-94
2023/09/28 01:31:47;;;;;;;0.10;0.00;;;;;;;17.03;60.12;100199.63;5290096;26;20080;-94
2023/09/28 01:34:16;;;;;;;0.10;0.10;;;;;;;16.85;60.12;100198.81;5310070;26;20044;-95
2023/09/28 01:36:42;;;;;;;0.75;0.70;;;;;;;16.72;60.11;100202.97;5290461;26;20354;-93
2023/09/28 01:39:20;;;;;;;0.20;0.20;;;;;;;16.76;60.10;100195.78;5289266;26;20056;-96
2023/09/28 01:41:45;;;;;;;0.45;0.45;;;;;;;16.72;60.11;100200.34;5291375;26;20721;-94
2023/09/28 01:44:11;;;;;;;0.65;0.65;;;;;;;16.76;60.10;100208.91;5307486;26;20060;-94
2023/09/28 01:46:36;;;;;;;0.75;0.65;;;;;;;16.84;60.10;100202.38;5300790;26;20076;-93
2023/09/28 01:49:02;;;;;;;0.20;0.20;;;;;;;16.67;60.10;100206.75;5306337;26;20042;-93
2023/09/28 01:51:28;;;;;;;0.32;0.32;;;;;;;17.01;60.12;100217.25;5312650;26;20072;-94
2023/09/28 01:53:53;;;;;;;0.10;0.10;;;;;;;16.74;60.10;100219.50;5289609;26;20111;-93
2023/09/28 01:56:19;;;;;;;0.55;0.55;;;;;;;16.75;60.10;100225.62;5288816;26;20064;-93
2023/09/28 01:58:44;;;;;;;0.80;0.47;;;;;;;16.68;60.09;100222.44;5289019;26;20385;-94
2023/09/28 02:01:20;;;;;;;0.75;0.37;;;;;;;16.58;60.09;100215.94;5289868;26;20349;-93
2023/09/28 02:03:46;;;;;;;1.55;0.70;;;;;;;16.42;60.09;100217.59;5290555;26;20092;-96
2023/09/28 02:06:11;;;;;;;1.15;0.75;;;;;;;16.58;60.10;100221.19;5290317;26;20106;-94
2023/09/28 02:08:37;;;;;;;0.13;0.13;;;;;;;16.70;60.10;100215.34;5290102;26;20068;-93
2023/09/28 02:11:03;;;;;;;0.40;0.40;;;;;;;16.67;60.09;100210.25;5290230;26;20099;-94
2023/09/28 02:13:28;;;;;;;0.30;0.30;;;;;;;16.70;60.10;100215.34;5290200;26;20449;-93
2023/09/28 02:15:54;;;;;;;0.95;0.77;;;;;;;16.72;60.10;100208.22;5289837;26;20438;-94
2023/09/28 02:18:22;;;;;;;0.32;0.32;;;;;;;16.74;60.10;100214.25;5290181;26;20048;-94
2023/09/28 02:20:48;;;;;;;0.90;0.90;;;;;;;16.83;60.10;100213.81;5289928;26;20056;-95
2023/09/28 02:23:13;;;;;;;0.75;0.75;;;;;;;17.03;60.12;100209.28;5308536;26;20061;-96
2023/09/28 02:25:39;;;;;;;1.17;0.43;;;;;;;17.07;60.12;100208.22;5290579;26;20325;-95
2023/09/28 02:28:04;;;;;;;0.43;0.40;;;;;;;17.04;60.12;100211.88;5292616;26;20056;-93
2023/09/28 02:30:30;;;;;;;3.60;1.73;;;;;;;16.88;60.11;100221.47;5299907;26;20064;-93
2023/09/28 02:32:55;;;;;;;0.62;0.62;;;;;;;16.85;60.11;100216.37;5311900;26;20060;-95
2023/09/28 02:35:21;;;;;;;1.20;0.90;;;;;;;16.85;60.11;100219.84;5290314;26;20100;-94
2023/09/28 02:37:48;;;;;;;0.20;0.20;;;;;;;17.03;60.12;100210.16;5289998;26;20096;-96
2023/09/28 02:40:14;;;;;;;0.37;0.37;;;;;;;16.93;60.11;100223.84;5290908;26;20140;-96
2023/09/28 02:42:41;;;;;;;0.47;0.22;;;;;;;17.01;60.12;100225.16;5290535;26;20039;-95
2023/09/28 02:45:11;;;;;;;1.90;1.25;;;;;;;16.99;60.11;100223.53;5290630;26;20064;-95
2023/09/28 02:47:43;;;;;;;0.00;0.00;;;;;;;17.12;60.12;100214.09;5291390;26;20111;-95
2023/09/28 02:50:12;;;;;;;0.32;0.32;;;;;;;17.07;60.11;100213.50;5308517;26;20079;-95
2023/09/28 02:52:38;;;;;;;1.10;1.00;;;;;;;17.03;60.12;100210.16;5292679;26;20064;-96
2023/09/28 02:55:07;;;;;;;0.20;0.15;;;;;;;17.01;60.12;100219.03;5290360;26;20120;-95
2023/09/28 02:57:33;;;;;;;0.90;0.40;;;;;;;17.12;60.12;100209.69;5291015;26;20107;-96
2023/09/28 02:59:58;;;;;;;0.52;0.40;;;;;;;17.12;60.12;100208.84;5290688;26;20356;-96
2023/09/28 03:02:24;;;;;;;0.10;0.10;;;;;;;17.04;60.12;100221.53;5290343;26;20053;-96
2023/09/28 03:04:52;;;;;;;0.47;0.32;;;;;;;17.01;60.12;100216.41;5290070;26;20103;-95
2023/09/28 03:07:20;;;;;;;1.10;0.88;;;;;;;16.76;60.10;100219.44;5290422;26;20053;-96
2023/09/28 03:09:46;;;;;;;1.67;0.80;;;;;;;16.65;60.10;100214.69;5309079;26;20736;-92
2023/09/28 03:12:11;;;;;;;1.55;0.45;;;;;;;16.79;60.10;100212.25;5307541;26;20068;-94
2023/09/28 03:14:37;;;;;;;7.18;0.75;;;;;;;17.05;60.11;100205.69;5289470;26;20082;-93
2023/09/28 03:17:04;;;;;;;0.65;0.65;;;;;;;17.12;60.12;100207.06;5289869;26;20105;-94
2023/09/28 03:19:29;;;;;;;0.62;0.47;;;;;;;16.82;60.11;100213.91;5290040;26;20064;-94
2023/09/28 03:21:55;;;;;;;0.47;0.47;;;;;;;16.85;60.12;100214.59;5289816;26;20067;-95
2023/09/28 03:24:20;;;;;;;0.35;0.35;;;;;;;16.75;60.10;100218.59;5289607;26;20124;-94
2023/09/28 03:26:46;;;;;;;0.10;0.10;;;;;;;16.63;60.10;100213.91;5289946;26;20107;-94
2023/09/28 03:29:11;;;;;;;0.93;0.88;;;;;;;16.52;60.09;100221.47;5289751;26;20087;-94
2023/09/28 03:31:37;;;;;;;0.30;0.30;;;;;;;16.60;60.09;100221.97;5289636;26;20112;-94
2023/09/28 03:34:02;;;;;;;0.10;0.10;;;;;;;16.58;60.10;100223.81;5289761;26;20056;-94
2023/09/28 03:36:30;;;;;;;0.10;0.10;;;;;;;16.75;60.10;100226.47;5289781;26;20111;-94
2023/09/28 03:38:56;;;;;;;0.77;0.77;;;;;;;16.67;60.09;100230.41;5290386;26;20067;-95
2023/09/28 03:41:23;;;;;;;0.65;0.45;;;;;;;16.54;60.08;100236.22;5290365;26;20104;-94
2023/09/28 03:43:48;;;;;;;0.43;0.37;;;;;;;16.52;60.09;100229.34;5290533;26;20044;-94
2023/09/28 03:46:18;;;;;;;0.45;0.45;;;;;;;16.45;60.08;100238.47;5290275;26;20138;-94
2023/09/28 03:48:45;;;;;;;0.40;0.28;;;;;;;16.31;60.07;100243.50;5289800;26;20064;-95
2023/09/28 03:51:13;;;;;;;0.10;0.10;;;;;;;16.34;60.08;100243.41;5308451;26;20068;-95
2023/09/28 03:53:39;;;;;;;0.05;0.05;;;;;;;16.27;60.08;100253.31;5292741;26;20056;-95
2023/09/28 03:56:04;;;;;;;0.10;0.10;;;;;;;16.30;60.07;100245.28;5290136;26;20409;-95
2023/09/28 03:58:30;;;;;;;1.10;0.80;;;;;;;16.22;60.07;100248.28;5309893;26;20074;-95
2023/09/28 04:01:08;;;;;;;3.35;1.95;;;;;;;16.41;60.08;100245.66;5291289;26;20302;-95
2023/09/28 04:03:36;;;;;;;0.28;0.28;;;;;;;16.14;60.07;100241.72;5313057;26;20048;-94
2023/09/28 04:06:02;;;;;;;0.22;0.22;;;;;;;16.16;60.07;100243.34;5329231;26;20024;-95
2023/09/28 04:08:27;;;;;;;0.55;0.40;;;;;;;16.13;60.06;100246.09;5295245;26;20063;-96
2023/09/28 04:10:55;;;;;;;1.08;0.98;;;;;;;16.15;60.06;100236.38;5289981;26;20071;-95
2023/09/28 04:13:20;;;;;;;0.20;0.20;;;;;;;16.16;60.06;100245.13;5290573;26;20056;-95
2023/09/28 04:15:48;;;;;;;0.05;0.05;;;;;;;16.12;60.07;100246.19;5289674;26;20329;-94
2023/09/28 04:18:14;;;;;;;0.13;0.13;;;;;;;16.12;60.06;100235.69;5290202;26;20075;-95
2023/09/28 04:20:41;;;;;;;0.57;0.20;;;;;;;16.09;60.07;100241.03;5290960;26;20061;-93
2023/09/28 04:23:08;;;;;;;0.70;0.70;;;;;;;16.20;60.07;100250.13;5291584;26;20064;-94
2023/09/28 04:25:35;;;;;;;0.15;0.15;;;;;;;16.15;60.07;100238.16;5306280;26;20036;-95
2023/09/28 04:28:00;;;;;;;0.13;0.13;;;;;;;16.07;60.06;100246.38;5324358;26;20067;-93
2023/09/28 04:30:27;;;;;;;0.40;0.40;;;;;;;16.37;60.08;100246.72;5292171;26;20064;-94
2023/09/28 04:32:54;;;;;;;1.27;1.17;;;;;;;16.04;60.06;100258.81;5290022;26;20060;-93
2023/09/28 04:35:20;;;;;;;3.05;1.35;;;;;;;15.99;60.06;100256.38;5289696;26;20072;-94
2023/09/28 04:37:47;;;;;;;1.50;0.55;;;;;;;16.04;60.06;100256.16;5289152;26;20477;-94
2023/09/28 04:40:13;;;;;;;0.55;0.55;;;;;;;16.32;60.08;100250.47;5307937;26;20142;-94
2023/09/28 04:42:39;;;;;;;0.47;0.47;;;;;;;16.06;60.06;100256.94;5289057;26;20052;-94
2023/09/28 04:45:05;;;;;;;1.05;0.62;;;;;;;16.04;60.06;100256.16;5289201;26;20048;-93
2023/09/28 04:47:31;;;;;;;0.20;0.20;;;;;;;16.16;60.08;100260.87;5288883;26;20072;-93
2023/09/28 04:49:57;;;;;;;0.88;0.82;;;;;;;16.11;60.07;100266.34;5307290;26;20064;-94
2023/09/28 04:52:22;;;;;;;1.65;1.15;;;;;;;16.04;60.06;100269.31;5289128;26;20088;-93
2023/09/28 04:54:49;;;;;;;0.20;0.20;;;;;;;16.15;60.07;100261.78;5307092;26;20062;-94
2023/09/28 04:57:15;;;;;;;1.00;0.52;;;;;;;16.08;60.08;100270.84;5306985;26;20651;-93
2023/09/28 04:59:41;;;;;;;0.13;0.13;;;;;;;16.20;60.07;100267.69;5307409;26;20078;-93
2023/09/28 05:02:07;;;;;;;1.45;0.85;;;;;;;16.05;60.06;100277.09;5306963;26;20344;-94
2023/09/28 05:04:33;;;;;;;1.67;1.08;;;;;;;16.05;60.06;100273.63;5288879;26;20413;-94
2023/09/28 05:06:59;;;;;;;6.50;1.55;;;;;;;16.02;60.07;100274.63;5306973;26;20074;-94
2023/09/28 05:09:26;;;;;;;0.57;0.57;;;;;;;16.14;60.07;100274.06;5307439;26;20067;-94
2023/09/28 05:11:53;;;;;;;2.67;0.68;;;;;;;16.05;60.06;100276.25;5307238;26;20106;-93
2023/09/28 05:14:23;;;;;;;0.10;0.10;;;;;;;15.96;60.06;100275.78;5289341;26;20491;-94
2023/09/28 05:16:49;;;;;;;0.43;0.43;;;;;;;16.07;60.06;100277.87;5307629;26;20069;-94
2023/09/28 05:19:15;;;;;;;0.15;0.15;;;;;;;16.22;60.06;100279.81;5288727;26;20166;-93
2023/09/28 05:21:40;;;;;;;0.20;0.20;;;;;;;16.38;60.08;100276.47;5288805;26;20386;-93
2023/09/28 05:24:06;;;;;;;0.00;0.00;;;;;;;16.36;60.08;100279.19;5288755;26;20068;-93
2023/09/28 05:26:32;;;;;;;1.27;0.55;;;;;;;16.36;60.07;100279.19;5289214;26;20099;-93
2023/09/28 05:28:58;;;;;;;0.10;0.10;;;;;;;16.35;60.08;100284.50;5289046;26;20060;-93
2023/09/28 05:31:23;;;;;;;0.00;0.00;;;;;;;16.55;60.09;100277.34;5289022;26;20056;-94
2023/09/28 05:33:50;;;;;;;0.20;0.20;;;;;;;16.49;60.09;100284.69;5288947;26;20052;-94
2023/09/28 05:36:15;;;;;;;0.10;0.10;;;;;;;16.80;60.10;100281.47;5289954;26;20071;-96
2023/09/28 05:38:41;;;;;;;2.15;1.60;;;;;;;16.85;60.11;100290.84;5290180;26;20326;-96
2023/09/28 05:41:07;;;;;;;0.22;0.22;;;;;;;16.89;60.11;100283.63;5290337;26;20076;-96
2023/09/28 05:43:34;;;;;;;0.95;0.95;;;;;;;17.03;60.12;100294.31;5307623;26;20088;-96
2023/09/28 05:46:00;;;;;;;0.10;0.10;;;;;;;17.19;60.13;100284.72;5331755;26;20132;-96
2023/09/28 05:48:26;;;;;;;0.73;0.65;;;;;;;17.03;60.12;100288.19;5291471;26;20079;-95
2023/09/28 05:50:53;;;;;;;0.40;0.20;;;;;;;17.09;60.12;100290.53;5289727;26;20098;-96
2023/09/28 05:53:18;;;;;;;1.40;0.70;;;;;;;17.19;60.12;100290.00;5289623;26;20123;-96
2023/09/28 05:55:44;;;;;;;0.40;0.30;;;;;;;17.30;60.13;100280.72;5289733;26;20068;-96
2023/09/28 05:58:09;;;;;;;5.78;0.60;;;;;;;17.21;60.12;100276.75;5289566;26;20102;-96
2023/09/28 06:00:37;;;;;;;0.28;0.28;;;;;;;17.11;60.12;100286.91;5289590;26;20162;-96
2023/09/28 06:03:04;;;;;;;0.45;0.45;;;;;;;17.05;60.11;100295.13;5290234;26;20053;-96
2023/09/28 06:05:29;;;;;;;0.17;0.17;;;;;;;17.11;60.12;100299.19;5289647;26;20603;-96
2023/09/28 06:07:55;;;;;;;0.40;0.40;;;;;;;17.19;60.12;100291.78;5288657;26;20143;-94
2023/09/28 06:10:21;;;;;;;1.75;1.65;;;;;;;17.30;60.13;100296.50;5306758;26;20322;-96
2023/09/28 06:12:46;;;;;;;0.93;0.88;;;;;;;17.41;60.14;100292.38;5290190;26;20045;-96
2023/09/28 06:15:12;;;;;;;0.85;0.30;;;;;;;17.69;60.14;100293.59;5289660;26;20120;-96
2023/09/28 06:17:37;;;;;;;0.65;0.65;;;;;;;17.75;60.15;100294.16;5289591;26;20350;-96
2023/09/28 06:20:05;;;;;;;1.08;0.80;;;;;;;17.71;60.15;100291.72;5288714;26;20065;-96
2023/09/28 06:22:31;;;;;;;0.20;0.20;;;;;;;17.75;60.15;100299.41;5289470;26;20052;-96
2023/09/28 06:24:56;;;;;;;1.40;0.73;;;;;;;17.86;60.16;100301.47;5306894;26;20120;-96
2023/09/28 06:27:25;;;;;;;1.02;0.98;;;;;;;17.96;60.16;100300.03;5288653;26;20152;-96
2023/09/28 06:29:52;;;;;;;0.40;0.40;;;;;;;18.07;60.17;100294.19;5289471;26;20060;-96
2023/09/28 06:32:19;;;;;;;0.85;0.70;;;;;;;18.17;60.17;100297.16;5289498;26;20417;-96
2023/09/28 06:34:44;;;;;;;0.45;0.43;;;;;;;18.38;60.19;100299.47;5288684;26;20069;-96
2023/09/28 06:37:09;;;;;;;0.10;0.10;;;;;;;18.55;60.20;100298.56;5288576;26;20103;-95
2023/09/28 06:39:35;;;;;;;2.20;1.35;;;;;;;18.67;60.20;100292.59;5288700;26;20060;-96
2023/09/28 06:42:00;;;;;;;1.45;1.33;;;;;;;18.83;60.21;100295.22;5288544;26;20098;-95
2023/09/28 06:44:26;;;;;;;1.50;0.73;;;;;;;18.77;60.20;100300.00;5288365;26;20064;-96
2023/09/28 06:46:52;;;;;;;1.10;1.08;;;;;;;19.01;60.23;100290.69;5289915;26;20696;-96
2023/09/28 06:49:17;;;;;;;0.80;0.32;;;;;;;19.05;60.22;100294.00;5289438;26;20060;-95
2023/09/28 06:51:43;;;;;;;1.10;1.00;;;;;;;18.96;60.22;100290.09;5289588;26;20082;-96
2023/09/28 06:54:08;;;;;;;0.40;0.22;;;;;;;19.11;60.22;100299.75;5307769;26;20065;-96
2023/09/28 06:56:36;;;;;;;0.90;0.90;;;;;;;19.16;60.23;100297.69;5290032;26;20113;-96
2023/09/28 06:59:01;;;;;;;1.95;0.73;;;;;;;19.27;60.23;100303.19;5309046;26;20039;-96
2023/09/28 07:01:27;;;;;;;0.25;0.22;;;;;;;19.50;60.24;100307.09;5291200;26;20056;-96
2023/09/28 07:03:52;;;;;;;1.15;1.05;;;;;;;19.61;60.25;100290.63;5306478;26;20130;-95
2023/09/28 07:06:21;;;;;;;0.75;0.75;;;;;;;19.73;60.26;100297.81;5307792;26;20104;-96
2023/09/28 07:08:47;;;;;;;5.93;0.60;;;;;;;19.81;60.26;100298.19;5297220;26;20044;-96
2023/09/28 07:11:12;;;;;;;0.15;0.15;;;;;;;19.84;60.26;100300.66;5294396;26;20092;-96
2023/09/28 07:13:38;;;;;;;0.10;0.10;;;;;;;19.99;60.27;100303.28;5292696;26;20072;-96
2023/09/28 07:16:03;;;;;;;0.28;0.28;;;;;;;20.14;60.27;100303.19;5290107;26;20116;-96
2023/09/28 07:18:29;;;;;;;0.95;0.47;;;;;;;20.47;60.30;100304.66;5289613;26;20082;-96
2023/09/28 07:20:55;;;;;;;0.00;0.00;;;;;;;20.63;60.31;100308.03;5288899;26;20079;-96
2023/09/28 07:23:20;;;;;;;4.47;1.67;;;;;;;20.72;60.31;100301.28;5289739;26;20065;-96
2023/09/28 07:25:46;;;;;;;0.10;0.10;;;;;;;21.06;60.33;100303.44;5289299;26;20080;-96
2023/09/28 07:28:12;;;;;;;0.47;0.47;;;;;;;21.02;60.33;100311.66;5289387;26;20366;-96
2023/09/28 07:30:38;;;;;;;0.40;0.40;;;;;;;21.20;60.33;100310.44;5289869;26;20070;-96
2023/09/28 07:33:04;;;;;;;1.25;0.70;;;;;;;21.34;60.34;100313.03;5289700;26;20079;-96
2023/09/28 07:35:30;;;;;;;0.20;0.20;;;;;;;21.56;60.34;100307.12;5290074;26;20064;-96
2023/09/28 07:37:55;;;;;;;1.02;0.68;;;;;;;21.65;60.36;100306.47;5307273;26;20079;-96
2023/09/28 07:40:24;;;;;;;0.25;0.25;;;;;;;21.78;60.36;100309.16;5289385;26;20074;-96
2023/09/28 07:42:50;;;;;;;1.33;1.23;;;;;;;21.95;60.36;100313.25;5290858;26;20084;-96
2023/09/28 07:45:18;;;;;;;0.32;0.32;;;;;;;22.11;60.38;100313.06;5289385;26;20052;-96
2023/09/28 07:47:43;;;;;;;1.30;0.47;;;;;;;22.10;60.39;100308.72;5308064;26;20064;-96
2023/09/28 07:50:14;;;;;;;1.50;0.60;;;;;;;22.35;60.40;100306.84;5289697;26;20074;-96
2023/09/28 07:52:42;;;;;;;0.43;0.43;;;;;;;22.27;60.39;100311.87;5290543;26;20121;-95
2023/09/28 07:55:08;;;;;;;0.40;0.40;;;;;;;22.39;60.39;100310.12;5289828;26;20059;-96
2023/09/28 07:57:35;;;;;;;0.62;0.62;;;;;;;22.42;60.40;100307.25;5289102;26;20048;-96
2023/09/28 08:00:00;;;;;;;0.43;0.43;;;;;;;22.54;60.40;100316.13;5289754;26;20067;-96
2023/09/28 08:02:27;;;;;;;0.57;0.57;;;;;;;22.72;60.42;100309.50;5289697;26;20064;-96
2023/09/28 08:04:53;;;;;;;1.20;1.10;;;;;;;23.02;60.42;100308.19;5307659;26;20379;-96
2023/09/28 08:07:18;;;;;;;0.73;0.73;;;;;;;22.93;60.42;100313.22;5289387;26;20052;-96
2023/09/28 08:09:44;;;;;;;0.65;0.35;;;;;;;23.01;60.42;100307.34;5289354;26;20199;-96
2023/09/28 08:12:09;;;;;;;0.88;0.55;;;;;;;23.15;60.44;100307.16;5290087;26;20060;-96
2023/09/28 08:14:35;;;;;;;0.50;0.50;;;;;;;23.30;60.45;100310.47;5307517;26;20353;-96
2023/09/28 08:17:00;;;;;;;0.98;0.37;;;;;;;23.09;60.43;100309.44;5289305;26;20108;-96
2023/09/28 08:19:26;;;;;;;0.10;0.10;;;;;;;23.31;60.45;100308.66;5289299;26;20052;-96
2023/09/28 08:21:51;;;;;;;0.00;0.00;;;;;;;23.33;60.44;100307.56;5289482;26;20116;-96
2023/09/28 08:24:17;;;;;;;7.82;1.60;;;;;;;23.56;60.46;100311.16;5290525;26;20115;-96
2023/09/28 08:26:43;;;;;;;0.22;0.22;;;;;;;23.61;60.46;100316.13;5292098;26;20123;-96
2023/09/28 08:29:08;;;;;;;6.37;0.77;;;;;;;23.60;60.46;100311.75;5308528;26;20471;-96
2023/09/28 08:31:36;;;;;;;2.53;0.35;;;;;;;23.75;60.47;100316.75;5308346;26;20087;-96
2023/09/28 08:34:03;;;;;;;1.00;0.30;;;;;;;23.89;60.48;100313.84;5289587;26;20068;-96
2023/09/28 08:36:29;;;;;;;2.92;0.93;;;;;;;23.90;60.48;100314.72;5289348;26;20112;-96
2023/09/28 08:38:55;;;;;;;0.40;0.40;;;;;;;23.98;60.48;100309.62;5289554;26;20024;-96
2023/09/28 08:41:28;;;;;;;1.10;0.82;;;;;;;24.08;60.49;100309.75;5289063;26;20064;-96
2023/09/28 08:43:56;;;;;;;0.82;0.37;;;;;;;24.19;60.49;100310.59;5309732;26;20084;-96
2023/09/28 08:46:22;;;;;;;1.92;1.70;;;;;;;24.26;60.49;100300.28;5290471;26;20131;-96
2023/09/28 08:48:47;;;;;;;0.82;0.50;;;;;;;24.32;60.50;100304.31;5288864;26;20068;-96
2023/09/28 08:51:13;;;;;;;0.25;0.25;;;;;;;24.55;60.50;100297.13;5307288;26;20364;-96
2023/09/28 08:53:39;;;;;;;0.30;0.30;;;;;;;24.64;60.51;100291.06;5308012;26;20056;-96
2023/09/28 08:56:05;;;;;;;0.35;0.35;;;;;;;24.78;60.52;100301.41;5289396;26;20052;-96
2023/09/28 08:58:34;;;;;;;0.68;0.68;;;;;;;24.91;60.54;100293.28;5307481;26;20376;-94
2023/09/28 09:01:00;;;;;;;0.77;0.77;;;;;;;24.83;60.53;100288.56;5280121;26;20123;-94
2023/09/28 09:03:25;;;;;;;0.55;0.55;;;;;;;24.78;60.52;100280.94;5289012;26;20105;-94
2023/09/28 09:05:51;;;;;;;1.95;1.12;;;;;;;24.87;60.52;100292.69;5288970;26;20080;-94
2023/09/28 09:08:17;;;;;;;0.05;0.05;;;;;;;25.03;60.54;100289.59;5288989;26;20357;-94
2023/09/28 09:10:42;;;;;;;0.60;0.50;;;;;;;25.20;60.55;100290.84;5288992;26;20063;-94
2023/09/28 09:13:18;;;;;;;0.65;0.65;;;;;;;25.33;60.55;100281.72;5306950;26;20057;-94
2023/09/28 09:15:44;;;;;;;2.30;1.05;;;;;;;25.28;60.55;100285.72;5291479;26;20060;-94
2023/09/28 09:18:19;;;;;;;0.25;0.25;;;;;;;25.22;60.54;100288.91;5289413;26;20099;-94
2023/09/28 09:20:46;;;;;;;1.33;1.00;;;;;;;25.42;60.56;100290.72;5289123;26;20028;-95
2023/09/28 09:23:12;;;;;;;0.60;0.60;;;;;;;25.42;60.56;100287.22;5289404;26;20064;-94
2023/09/28 09:25:42;;;;;;;1.73;0.30;;;;;;;25.55;60.57;100290.50;5289242;26;20333;-95
2023/09/28 09:28:07;;;;;;;1.33;1.23;;;;;;;25.77;60.57;100278.88;5289123;26;20029;-94
2023/09/28 09:30:36;;;;;;;0.70;0.50;;;;;;;25.80;60.58;100281.28;5289019;26;20104;-94
2023/09/28 09:33:04;;;;;;;0.60;0.60;;;;;;;25.76;60.57;100283.34;5289900;26;20662;-94
2023/09/28 09:35:31;;;;;;;0.45;0.45;;;;;;;25.89;60.58;100280.47;5289691;26;20060;-94
2023/09/28 09:37:56;;;;;;;0.80;0.73;;;;;;;26.04;60.59;100286.31;5289563;26;20657;-94
2023/09/28 09:40:22;;;;;;;0.25;0.20;;;;;;;26.13;60.60;100282.81;5289229;26;20064;-94
2023/09/28 09:42:48;;;;;;;1.20;0.60;;;;;;;26.28;60.60;100279.62;5289313;26;20128;-95
2023/09/28 09:45:13;;;;;;;0.10;0.10;;;;;;;26.25;60.61;100279.03;5291151;26;20128;-94
2023/09/28 09:47:49;;;;;;;1.25;1.15;;;;;;;26.46;60.61;100278.97;5322842;26;20053;-95
2023/09/28 09:50:14;;;;;;;1.67;1.30;;;;;;;26.52;60.62;100270.44;5306577;26;20059;-95
2023/09/28 09:52:44;;;;;;;0.95;0.62;;;;;;;26.44;60.61;100283.63;5297613;26;20084;-94
2023/09/28 09:55:09;;;;;;;1.20;1.05;;;;;;;26.40;60.61;100277.72;5295237;26;20094;-95
2023/09/28 09:57:37;;;;;;;1.08;0.98;;;;;;;26.67;60.62;100277.03;5289664;26;20382;-93
2023/09/28 10:00:04;;;;;;;7.65;1.60;;;;;;;26.73;60.63;100280.97;5289705;26;20114;-94
2023/09/28 10:02:30;;;;;;;9.75;1.92;;;;;;;26.77;60.63;100279.75;5289695;26;20065;-94
2023/09/28 10:04:56;;;;;;;5.20;2.25;;;;;;;27.07;60.64;100273.44;5288424;26;20056;-95
2023/09/28 10:07:26;;;;;;;2.83;1.12;;;;;;;27.21;60.66;100273.84;5288562;26;20060;-94
2023/09/28 10:09:53;;;;;;;1.48;1.35;;;;;;;27.25;60.65;100279.75;5307552;26;20044;-94
2023/09/28 10:12:18;;;;;;;0.75;0.75;;;;;;;27.05;60.64;100273.56;5288773;26;20068;-95
2023/09/28 10:14:44;;;;;;;0.77;0.77;;;;;;;27.17;60.65;100272.41;5288497;26;20060;-94
2023/09/28 10:17:11;;;;;;;0.80;0.80;;;;;;;27.20;60.65;100276.62;5306708;26;20314;-94
2023/09/28 10:19:36;;;;;;;0.85;0.37;;;;;;;27.39;60.66;100270.41;5288967;26;20447;-94
2023/09/28 10:22:02;;;;;;;0.20;0.20;;;;;;;27.50;60.67;100268.44;5289391;26;20116;-95
2023/09/28 10:24:31;;;;;;;0.57;0.52;;;;;;;27.60;60.68;100263.03;5289066;26;20425;-94
2023/09/28 10:26:57;;;;;;;1.77;0.60;;;;;;;27.63;60.67;100268.13;5289444;26;20058;-94
2023/09/28 10:29:30;;;;;;;1.87;0.93;;;;;;;27.74;60.67;100262.62;5289287;26;20421;-94
2023/09/28 10:31:56;;;;;;;2.15;1.50;;;;;;;28.05;60.70;100273.88;5291621;26;20073;-94
2023/09/28 10:34:23;;;;;;;1.35;1.08;;;;;;;28.05;60.69;100267.69;5307780;26;20052;-94
2023/09/28 10:37:07;;;;;;;2.03;0.85;;;;;;;28.24;60.71;100261.37;5289388;26;20102;-94
2023/09/28 10:39:33;;;;;;;10.45;0.65;;;;;;;28.20;60.70;100265.34;5325912;26;20474;-94
2023/09/28 10:42:27;;;;;;;0.65;0.65;;;;;;;28.27;60.70;100255.75;5289558;26;20068;-93
2023/09/28 10:44:53;;;;;;;0.98;0.68;;;;;;;28.31;60.71;100260.66;5322163;26;20024;-92
2023/09/28 10:47:19;;;;;;;1.02;0.85;;;;;;;28.08;60.70;100254.00;5289510;26;20044;-94
2023/09/28 10:49:48;;;;;;;0.65;0.65;;;;;;;28.25;60.71;100255.06;5289651;26;20060;-94
2023/09/28 10:52:14;;;;;;;1.80;0.88;;;;;;;28.30;60.71;100248.25;5289977;26;20134;-94
2023/09/28 10:54:39;;;;;;;1.65;1.15;;;;;;;28.50;60.72;100245.47;5289232;26;20056;-94
2023/09/28 10:57:09;;;;;;;0.50;0.50;;;;;;;28.71;60.73;100251.34;5307367;26;20079;-95
2023/09/28 10:59:40;;;;;;;;;;;;;;;28.81;60.74;100246.75;5290022;26;20075;-94
2023/09/28 11:02:06;;;;;;;4.68;1.87;;;;;;;29.03;60.75;100242.78;5307957;26;19982;-94
2023/09/28 11:04:31;;;;;;;0.70;0.45;;;;;;;28.93;60.73;100242.88;5289176;26;20090;-94
2023/09/28 11:06:57;;;;;;;1.33;1.23;;;;;;;29.13;60.75;100240.03;5307494;26;20093;-94
2023/09/28 11:09:24;;;;;;;0.88;0.73;;;;;;;29.21;60.75;100235.53;5289464;26;20336;-95
2023/09/28 11:11:50;;;;;;;1.75;0.65;;;;;;;29.48;60.76;100236.41;5308599;26;20083;-95
2023/09/28 11:14:15;;;;;;;0.62;0.62;;;;;;;29.39;60.76;100229.28;5289994;26;20393;-94
2023/09/28 11:16:42;;;;;;;1.12;0.85;;;;;;;29.43;60.77;100225.28;5307255;26;20321;-94
2023/09/28 11:19:10;;;;;;;0.55;0.40;;;;;;;29.63;60.77;100230.31;5289410;26;20025;-94
2023/09/28 11:21:37;;;;;;;0.77;0.77;;;;;;;29.65;60.78;100224.78;5289334;26;20070;-94
2023/09/28 11:24:03;;;;;;;1.02;1.02;;;;;;;29.71;60.78;100220.59;5289363;26;20138;-94
2023/09/28 11:26:30;;;;;;;0.17;0.17;;;;;;;29.83;60.79;100216.66;5289495;26;20413;-94
2023/09/28 11:28:56;;;;;;;0.55;0.55;;;;;;;29.99;60.79;100218.53;5289645;26;20068;-94
2023/09/28 11:31:22;;;;;;;1.87;0.98;;;;;;;29.95;60.79;100218.84;5289533;26;20776;-95
2023/09/28 11:33:47;;;;;;;0.77;0.73;;;;;;;29.95;60.79;100210.81;5307481;26;20065;-95
2023/09/28 11:36:21;;;;;;;16.55;1.83;;;;;;;29.83;60.79;100213.97;5289284;26;20091;-94
2023/09/28 11:38:49;;;;;;;0.20;0.20;;;;;;;30.00;60.79;100210.31;5289369;26;20084;-94
2023/09/28 11:41:15;;;;;;;0.65;0.65;;;;;;;30.11;60.80;100211.91;5289376;26;20071;-94